createdAt,value
2023-05-10T07:47:40.974Z,0.50
2023-05-10T07:52:55.994Z,0.40
2023-05-10T07:58:04.761Z,0.30
2023-05-10T08:03:14.196Z,0.30
2023-05-10T08:08:24.929Z,0.30
2023-05-10T08:13:36.211Z,0.30
2023-05-10T08:18:46.660Z,0.30
2023-05-10T08:23:55.950Z,0.30
2023-05-10T08:29:05.630Z,0.40
2023-05-10T08:34:15.474Z,0.30
2023-05-10T08:39:30.280Z,0.40
2023-05-10T08:44:38.063Z,0.40
2023-05-10T08:49:50.056Z,0.40
2023-05-10T08:54:58.835Z,0.40
2023-05-10T09:00:10.887Z,0.53
2023-05-10T09:05:20.264Z,0.40
2023-05-10T09:10:30.800Z,0.40
2023-05-10T09:15:39.692Z,0.70
2023-05-10T09:20:48.816Z,0.40
2023-05-10T09:25:59.738Z,0.50
2023-05-10T09:31:07.752Z,0.60
2023-05-10T09:36:16.115Z,0.60
2023-05-10T09:41:27.104Z,0.53
2023-05-10T09:46:38.526Z,0.50
2023-05-10T09:51:46.858Z,0.53
2023-05-10T09:56:55.485Z,0.40
2023-05-10T10:02:03.967Z,0.50
2023-05-10T10:07:12.623Z,0.60
2023-05-10T10:12:22.259Z,0.60
2023-05-10T10:17:32.705Z,0.50
2023-05-10T10:22:41.351Z,0.63
2023-05-10T10:27:49.598Z,0.50
2023-05-10T10:33:05.575Z,0.60
2023-05-10T10:38:12.581Z,0.80
2023-05-10T10:43:22.351Z,0.50
2023-05-10T10:48:30.094Z,0.70
2023-05-10T10:53:39.642Z,0.50
2023-05-10T10:58:52.598Z,0.70
2023-05-10T11:04:02.092Z,0.60
2023-05-10T11:09:12.720Z,0.60
2023-05-10T11:14:24.226Z,0.90
2023-05-10T11:19:32.846Z,0.70
2023-05-10T11:24:43.799Z,0.70
2023-05-10T11:29:54.376Z,0.87
2023-05-10T11:35:04.499Z,0.60
2023-05-10T11:40:18.332Z,0.70
2023-05-10T11:45:30.446Z,0.73
2023-05-10T11:50:39.787Z,0.70
2023-05-10T11:55:48.703Z,0.73
2023-05-10T12:00:58.527Z,0.60
2023-05-10T12:06:07.645Z,0.73
2023-05-10T12:11:17.170Z,0.60
2023-05-10T12:16:27.589Z,1.20
2023-05-10T12:21:36.195Z,0.90
2023-05-10T12:31:56.180Z,0.70
2023-05-10T12:37:05.303Z,0.80
2023-05-10T12:42:13.946Z,0.80
2023-05-10T12:47:22.220Z,0.80
2023-05-10T12:52:33.887Z,0.73
2023-05-10T12:57:42.219Z,0.90
2023-05-10T13:02:55.042Z,0.83
2023-05-10T13:08:02.995Z,0.87
2023-05-10T13:13:12.094Z,0.97
2023-05-10T13:18:19.997Z,1.00
2023-05-10T13:23:28.524Z,1.00
2023-05-10T13:28:36.705Z,0.90
2023-05-10T13:33:45.330Z,0.90
2023-05-10T13:38:53.175Z,0.80
2023-05-10T13:44:01.450Z,0.90
2023-05-10T13:49:12.533Z,0.93
2023-05-10T13:54:21.494Z,0.70
2023-05-10T13:59:29.373Z,0.97
2023-05-10T14:04:38.252Z,0.80
2023-05-10T14:09:46.333Z,0.80
2023-05-10T14:14:55.260Z,0.60
2023-05-10T14:20:03.621Z,0.50
2023-05-10T14:25:12.113Z,0.50
2023-05-10T14:30:20.173Z,0.70
2023-05-10T14:35:28.608Z,0.60
2023-05-10T14:40:40.832Z,0.70
2023-05-10T14:45:51.097Z,0.70
2023-05-10T14:50:59.238Z,0.70
2023-05-10T14:56:07.238Z,0.90
2023-05-10T15:01:15.995Z,1.00
2023-05-10T15:06:27.267Z,0.90
2023-05-10T15:11:36.273Z,0.80
2023-05-10T15:16:45.195Z,0.80
2023-05-10T15:21:58.257Z,0.80
2023-05-10T15:27:06.413Z,0.70
2023-05-10T15:32:14.891Z,0.90
2023-05-10T15:37:25.222Z,0.80
2023-05-10T15:42:34.584Z,0.80
2023-05-10T15:47:43.379Z,0.80
2023-05-10T15:52:52.861Z,0.90
2023-05-10T15:58:00.701Z,0.87
2023-05-10T16:03:09.061Z,0.80
2023-05-10T16:08:17.645Z,0.90
2023-05-10T16:13:25.681Z,0.80
2023-05-10T16:18:34.286Z,0.80
2023-05-10T16:23:42.077Z,0.80
2023-05-10T16:28:50.422Z,0.80
2023-05-10T16:33:57.961Z,0.70
2023-05-10T16:39:06.692Z,0.70
2023-05-10T16:44:14.951Z,0.80
2023-05-10T16:49:26.129Z,0.80
2023-05-10T16:54:34.498Z,0.63
2023-05-10T16:59:42.742Z,0.80
2023-05-10T17:04:51.378Z,0.80
2023-05-10T17:10:00.268Z,0.80
2023-05-10T17:15:12.050Z,0.90
2023-05-10T17:20:20.855Z,0.80
2023-05-10T17:25:29.667Z,0.70
2023-05-10T17:30:39.250Z,0.80
2023-05-10T17:35:52.345Z,0.70
2023-05-10T17:41:01.953Z,0.80
2023-05-10T17:46:11.191Z,0.80
2023-05-10T17:51:21.451Z,0.70
2023-05-10T17:56:30.415Z,0.70
2023-05-10T18:01:39.388Z,0.80
2023-05-10T18:06:50.311Z,0.90
2023-05-10T18:11:59.219Z,0.70
2023-05-10T18:17:07.145Z,0.70
2023-05-10T18:22:16.083Z,1.00
2023-05-10T18:27:24.886Z,0.90
2023-05-10T18:32:34.620Z,0.90
2023-05-10T18:37:44.268Z,0.90
2023-05-10T18:42:54.452Z,1.00
2023-05-10T18:48:03.669Z,1.30
2023-05-10T18:53:12.000Z,0.87
2023-05-10T18:58:20.568Z,1.00
2023-05-10T19:03:31.030Z,0.83
2023-05-10T19:08:40.685Z,0.90
2023-05-10T19:13:49.895Z,0.80
2023-05-10T19:18:58.777Z,0.70
2023-05-10T19:24:08.573Z,1.10
2023-05-10T19:29:17.672Z,0.80
2023-05-10T19:34:27.051Z,0.87
2023-05-10T19:39:37.576Z,0.90
2023-05-10T19:44:46.021Z,0.90
2023-05-10T19:49:55.013Z,0.83
2023-05-10T19:55:06.062Z,0.93
2023-05-10T20:00:16.859Z,0.87
2023-05-10T20:05:29.993Z,0.80
2023-05-10T20:10:43.327Z,0.80
2023-05-10T20:15:54.443Z,0.80
2023-05-10T20:21:05.516Z,0.80
2023-05-10T20:26:14.427Z,0.83
2023-05-10T20:31:23.027Z,1.00
2023-05-10T20:36:32.254Z,0.90
2023-05-10T20:41:40.868Z,0.70
2023-05-10T20:46:49.762Z,0.80
2023-05-10T20:51:58.821Z,0.80
2023-05-10T20:57:06.827Z,0.83
2023-05-10T21:02:14.875Z,0.70
2023-05-10T21:07:22.225Z,0.90
2023-05-10T21:12:29.952Z,0.83
2023-05-10T21:17:38.062Z,0.90
2023-05-10T21:22:46.955Z,0.90
2023-05-10T21:27:55.972Z,0.90
2023-05-10T21:33:05.900Z,0.90
2023-05-10T21:38:14.477Z,1.00
2023-05-10T21:43:22.192Z,0.90
2023-05-10T21:48:29.993Z,1.00
2023-05-10T21:53:39.646Z,1.00
2023-05-10T21:58:47.240Z,0.90
2023-05-10T22:03:54.409Z,1.00
2023-05-10T22:09:01.684Z,1.00
2023-05-10T22:14:09.174Z,1.00
2023-05-10T22:19:17.435Z,0.90
2023-05-10T22:24:25.571Z,0.80
2023-05-10T22:29:34.441Z,0.90
2023-05-10T22:34:44.016Z,0.80
2023-05-10T22:39:52.169Z,0.87
2023-05-10T22:45:00.428Z,0.70
2023-05-10T22:50:08.908Z,0.80
2023-05-10T22:55:16.473Z,0.90
2023-05-10T23:00:24.748Z,0.80
2023-05-10T23:05:33.231Z,0.90
2023-05-10T23:10:41.123Z,0.63
2023-05-10T23:15:50.146Z,0.80
2023-05-10T23:20:58.364Z,0.90
2023-05-10T23:26:06.729Z,0.83
2023-05-10T23:31:14.613Z,0.70
2023-05-10T23:36:23.093Z,0.77
2023-05-10T23:41:31.045Z,1.33
2023-05-10T23:46:39.086Z,0.63
2023-05-10T23:51:47.431Z,0.80
2023-05-10T23:56:55.466Z,0.80
